sensor_id;sensor_type;location;lat;lon;timestamp;temperature;humidity
24636;DHT22;12772;49.794;10.024;2023-11-22T00:03:43;7.50;53.10
24636;DHT22;12772;49.794;10.024;2023-11-22T00:07:45;7.90;54.30
24636;DHT22;12772;49.794;10.024;2023-11-22T00:11:48;7.70;55.10
24636;DHT22;12772;49.794;10.024;2023-11-22T00:15:50;7.80;55.90
24636;DHT22;12772;49.794;10.024;2023-11-22T00:19:52;7.50;55.50
24636;DHT22;12772;49.794;10.024;2023-11-22T00:23:54;7.40;55.40
24636;DHT22;12772;49.794;10.024;2023-11-22T00:27:56;7.60;55.70
24636;DHT22;12772;49.794;10.024;2023-11-22T00:31:58;7.40;55.40
24636;DHT22;12772;49.794;10.024;2023-11-22T00:36:00;7.60;55.60
24636;DHT22;12772;49.794;10.024;2023-11-22T00:40:05;7.40;56.30
24636;DHT22;12772;49.794;10.024;2023-11-22T00:44:11;7.80;56.90
24636;DHT22;12772;49.794;10.024;2023-11-22T00:48:13;7.70;56.90
24636;DHT22;12772;49.794;10.024;2023-11-22T00:52:15;7.70;56.70
24636;DHT22;12772;49.794;10.024;2023-11-22T00:56:17;7.50;55.50
24636;DHT22;12772;49.794;10.024;2023-11-22T01:00:19;7.50;55.60
24636;DHT22;12772;49.794;10.024;2023-11-22T01:04:21;7.70;55.40
24636;DHT22;12772;49.794;10.024;2023-11-22T01:08:23;7.60;54.20
24636;DHT22;12772;49.794;10.024;2023-11-22T01:12:25;7.50;54.40
24636;DHT22;12772;49.794;10.024;2023-11-22T01:16:27;7.50;54.90
24636;DHT22;12772;49.794;10.024;2023-11-22T01:20:29;7.30;54.50
24636;DHT22;12772;49.794;10.024;2023-11-22T01:24:31;7.10;54.90
24636;DHT22;12772;49.794;10.024;2023-11-22T01:28:33;7.30;54.30
24636;DHT22;12772;49.794;10.024;2023-11-22T01:32:35;7.60;54.40
24636;DHT22;12772;49.794;10.024;2023-11-22T01:36:42;7.60;54.50
24636;DHT22;12772;49.794;10.024;2023-11-22T01:40:47;7.10;54.10
24636;DHT22;12772;49.794;10.024;2023-11-22T01:44:51;7.60;54.70
24636;DHT22;12772;49.794;10.024;2023-11-22T01:48:54;7.20;54.00
24636;DHT22;12772;49.794;10.024;2023-11-22T01:52:57;7.50;54.20
24636;DHT22;12772;49.794;10.024;2023-11-22T01:57:00;7.00;53.60
24636;DHT22;12772;49.794;10.024;2023-11-22T02:01:04;7.20;53.70
24636;DHT22;12772;49.794;10.024;2023-11-22T02:05:08;7.40;54.10
24636;DHT22;12772;49.794;10.024;2023-11-22T02:09:12;7.40;55.00
24636;DHT22;12772;49.794;10.024;2023-11-22T02:13:16;7.50;55.00
24636;DHT22;12772;49.794;10.024;2023-11-22T02:17:18;7.30;53.90
24636;DHT22;12772;49.794;10.024;2023-11-22T02:21:20;7.50;53.50
24636;DHT22;12772;49.794;10.024;2023-11-22T02:25:22;7.00;53.10
24636;DHT22;12772;49.794;10.024;2023-11-22T02:29:24;7.40;53.00
24636;DHT22;12772;49.794;10.024;2023-11-22T02:33:26;7.30;52.40
24636;DHT22;12772;49.794;10.024;2023-11-22T02:37:28;7.30;52.20
24636;DHT22;12772;49.794;10.024;2023-11-22T02:41:30;7.30;52.40
24636;DHT22;12772;49.794;10.024;2023-11-22T02:45:33;7.20;52.60
24636;DHT22;12772;49.794;10.024;2023-11-22T02:49:35;7.30;52.20
24636;DHT22;12772;49.794;10.024;2023-11-22T02:53:37;6.90;51.00
24636;DHT22;12772;49.794;10.024;2023-11-22T02:57:40;7.00;50.90
24636;DHT22;12772;49.794;10.024;2023-11-22T03:01:42;6.50;49.70
24636;DHT22;12772;49.794;10.024;2023-11-22T03:05:46;6.70;48.90
24636;DHT22;12772;49.794;10.024;2023-11-22T03:09:48;6.70;48.00
24636;DHT22;12772;49.794;10.024;2023-11-22T03:13:50;6.30;48.00
24636;DHT22;12772;49.794;10.024;2023-11-22T03:17:52;6.60;47.40
24636;DHT22;12772;49.794;10.024;2023-11-22T03:21:55;6.30;47.20
24636;DHT22;12772;49.794;10.024;2023-11-22T03:25:57;6.30;46.60
24636;DHT22;12772;49.794;10.024;2023-11-22T03:30:00;6.10;47.20
24636;DHT22;12772;49.794;10.024;2023-11-22T03:34:03;5.60;46.80
24636;DHT22;12772;49.794;10.024;2023-11-22T03:38:05;5.70;47.20
24636;DHT22;12772;49.794;10.024;2023-11-22T03:42:08;5.90;47.90
24636;DHT22;12772;49.794;10.024;2023-11-22T03:46:10;5.80;47.30
24636;DHT22;12772;49.794;10.024;2023-11-22T03:50:13;5.70;47.50
24636;DHT22;12772;49.794;10.024;2023-11-22T03:54:15;5.60;47.70
24636;DHT22;12772;49.794;10.024;2023-11-22T03:58:17;5.50;47.20
24636;DHT22;12772;49.794;10.024;2023-11-22T04:02:19;5.00;47.20
24636;DHT22;12772;49.794;10.024;2023-11-22T04:06:21;5.10;47.70
24636;DHT22;12772;49.794;10.024;2023-11-22T04:10:24;5.50;47.90
24636;DHT22;12772;49.794;10.024;2023-11-22T04:14:26;5.20;47.70
24636;DHT22;12772;49.794;10.024;2023-11-22T04:18:28;5.00;47.60
24636;DHT22;12772;49.794;10.024;2023-11-22T04:22:31;5.60;48.10
24636;DHT22;12772;49.794;10.024;2023-11-22T04:26:34;5.40;46.80
24636;DHT22;12772;49.794;10.024;2023-11-22T04:30:37;5.10;47.00
24636;DHT22;12772;49.794;10.024;2023-11-22T04:34:39;5.00;47.10
24636;DHT22;12772;49.794;10.024;2023-11-22T04:38:41;5.00;46.90
24636;DHT22;12772;49.794;10.024;2023-11-22T04:42:43;5.10;47.20
24636;DHT22;12772;49.794;10.024;2023-11-22T04:46:45;4.90;47.00
24636;DHT22;12772;49.794;10.024;2023-11-22T04:50:47;4.70;47.10
24636;DHT22;12772;49.794;10.024;2023-11-22T04:54:50;4.90;47.40
24636;DHT22;12772;49.794;10.024;2023-11-22T04:58:52;4.90;47.10
24636;DHT22;12772;49.794;10.024;2023-11-22T05:02:54;4.90;47.10
24636;DHT22;12772;49.794;10.024;2023-11-22T05:06:56;4.60;46.80
24636;DHT22;12772;49.794;10.024;2023-11-22T05:10:58;4.20;46.70
24636;DHT22;12772;49.794;10.024;2023-11-22T05:15:01;4.70;47.60
24636;DHT22;12772;49.794;10.024;2023-11-22T05:19:03;4.70;47.50
24636;DHT22;12772;49.794;10.024;2023-11-22T05:23:06;4.80;47.50
24636;DHT22;12772;49.794;10.024;2023-11-22T05:27:09;4.60;47.50
24636;DHT22;12772;49.794;10.024;2023-11-22T05:31:11;4.90;47.70
24636;DHT22;12772;49.794;10.024;2023-11-22T05:35:13;4.60;47.10
24636;DHT22;12772;49.794;10.024;2023-11-22T05:39:15;4.60;46.60
24636;DHT22;12772;49.794;10.024;2023-11-22T05:43:18;4.90;46.90
24636;DHT22;12772;49.794;10.024;2023-11-22T05:47:26;5.10;46.80
24636;DHT22;12772;49.794;10.024;2023-11-22T05:51:28;4.60;46.50
24636;DHT22;12772;49.794;10.024;2023-11-22T05:55:30;4.60;46.90
24636;DHT22;12772;49.794;10.024;2023-11-22T05:59:32;4.50;46.10
24636;DHT22;12772;49.794;10.024;2023-11-22T06:03:35;4.60;45.80
24636;DHT22;12772;49.794;10.024;2023-11-22T06:07:37;5.20;46.20
24636;DHT22;12772;49.794;10.024;2023-11-22T06:11:39;4.90;46.10
24636;DHT22;12772;49.794;10.024;2023-11-22T06:15:41;4.90;46.60
24636;DHT22;12772;49.794;10.024;2023-11-22T06:19:43;5.10;46.50
24636;DHT22;12772;49.794;10.024;2023-11-22T06:23:45;4.70;46.10
24636;DHT22;12772;49.794;10.024;2023-11-22T06:27:47;4.90;45.90
24636;DHT22;12772;49.794;10.024;2023-11-22T06:31:49;4.60;45.80
24636;DHT22;12772;49.794;10.024;2023-11-22T06:35:51;4.50;45.50
24636;DHT22;12772;49.794;10.024;2023-11-22T06:39:53;4.90;45.40
24636;DHT22;12772;49.794;10.024;2023-11-22T06:43:55;4.70;44.60
24636;DHT22;12772;49.794;10.024;2023-11-22T06:47:57;5.00;45.40
24636;DHT22;12772;49.794;10.024;2023-11-22T06:52:00;4.50;45.20
24636;DHT22;12772;49.794;10.024;2023-11-22T06:56:02;4.50;44.90
24636;DHT22;12772;49.794;10.024;2023-11-22T07:00:05;4.50;44.90
24636;DHT22;12772;49.794;10.024;2023-11-22T07:04:10;4.80;45.00
24636;DHT22;12772;49.794;10.024;2023-11-22T07:08:12;4.50;45.20
24636;DHT22;12772;49.794;10.024;2023-11-22T07:12:17;4.30;44.70
24636;DHT22;12772;49.794;10.024;2023-11-22T07:16:19;4.70;45.40
24636;DHT22;12772;49.794;10.024;2023-11-22T07:20:21;4.80;45.90
24636;DHT22;12772;49.794;10.024;2023-11-22T07:24:24;4.50;45.80
24636;DHT22;12772;49.794;10.024;2023-11-22T07:28:26;4.20;45.60
24636;DHT22;12772;49.794;10.024;2023-11-22T07:32:29;4.10;45.50
24636;DHT22;12772;49.794;10.024;2023-11-22T07:36:31;4.20;45.60
24636;DHT22;12772;49.794;10.024;2023-11-22T07:40:33;4.60;46.50
24636;DHT22;12772;49.794;10.024;2023-11-22T07:44:35;4.50;45.90
24636;DHT22;12772;49.794;10.024;2023-11-22T07:48:39;4.90;46.30
24636;DHT22;12772;49.794;10.024;2023-11-22T07:52:41;4.50;45.60
24636;DHT22;12772;49.794;10.024;2023-11-22T07:56:45;4.40;45.30
24636;DHT22;12772;49.794;10.024;2023-11-22T08:00:48;4.70;45.40
24636;DHT22;12772;49.794;10.024;2023-11-22T08:04:50;4.70;45.40
24636;DHT22;12772;49.794;10.024;2023-11-22T08:08:53;4.80;45.50
24636;DHT22;12772;49.794;10.024;2023-11-22T08:12:55;4.70;45.50
24636;DHT22;12772;49.794;10.024;2023-11-22T08:16:58;4.80;45.60
24636;DHT22;12772;49.794;10.024;2023-11-22T08:21:00;4.50;45.30
24636;DHT22;12772;49.794;10.024;2023-11-22T08:25:03;5.20;45.40
24636;DHT22;12772;49.794;10.024;2023-11-22T08:29:05;4.90;45.10
24636;DHT22;12772;49.794;10.024;2023-11-22T08:33:08;5.00;44.90
24636;DHT22;12772;49.794;10.024;2023-11-22T08:37:10;5.10;44.70
24636;DHT22;12772;49.794;10.024;2023-11-22T08:41:12;4.90;44.40
24636;DHT22;12772;49.794;10.024;2023-11-22T08:45:14;4.60;43.70
24636;DHT22;12772;49.794;10.024;2023-11-22T08:49:16;4.60;43.60
24636;DHT22;12772;49.794;10.024;2023-11-22T08:53:20;4.80;44.20
24636;DHT22;12772;49.794;10.024;2023-11-22T08:57:22;4.70;44.10
24636;DHT22;12772;49.794;10.024;2023-11-22T09:01:24;5.00;44.20
24636;DHT22;12772;49.794;10.024;2023-11-22T09:05:26;4.90;44.30
24636;DHT22;12772;49.794;10.024;2023-11-22T09:09:29;5.30;44.00
24636;DHT22;12772;49.794;10.024;2023-11-22T09:13:32;5.40;44.50
24636;DHT22;12772;49.794;10.024;2023-11-22T09:17:37;4.90;43.00
24636;DHT22;12772;49.794;10.024;2023-11-22T09:21:43;4.80;43.30
24636;DHT22;12772;49.794;10.024;2023-11-22T09:25:45;5.30;43.80
24636;DHT22;12772;49.794;10.024;2023-11-22T09:29:48;5.40;43.30
24636;DHT22;12772;49.794;10.024;2023-11-22T09:33:50;5.40;43.80
24636;DHT22;12772;49.794;10.024;2023-11-22T09:37:53;5.10;43.40
24636;DHT22;12772;49.794;10.024;2023-11-22T09:41:54;5.60;43.80
24636;DHT22;12772;49.794;10.024;2023-11-22T09:45:56;5.90;43.40
24636;DHT22;12772;49.794;10.024;2023-11-22T09:50:01;5.80;43.10
24636;DHT22;12772;49.794;10.024;2023-11-22T09:54:06;5.90;42.70
24636;DHT22;12772;49.794;10.024;2023-11-22T09:58:13;6.00;43.10
24636;DHT22;12772;49.794;10.024;2023-11-22T10:02:15;6.30;42.90
24636;DHT22;12772;49.794;10.024;2023-11-22T10:06:17;6.00;41.60
24636;DHT22;12772;49.794;10.024;2023-11-22T10:10:19;6.50;41.60
24636;DHT22;12772;49.794;10.024;2023-11-22T10:14:27;6.10;40.90
24636;DHT22;12772;49.794;10.024;2023-11-22T10:18:29;6.20;41.00
24636;DHT22;12772;49.794;10.024;2023-11-22T10:22:43;6.40;40.80
24636;DHT22;12772;49.794;10.024;2023-11-22T10:26:46;6.40;41.20
24636;DHT22;12772;49.794;10.024;2023-11-22T10:30:49;5.90;40.70
24636;DHT22;12772;49.794;10.024;2023-11-22T10:34:52;6.50;41.30
24636;DHT22;12772;49.794;10.024;2023-11-22T10:38:54;6.20;41.00
24636;DHT22;12772;49.794;10.024;2023-11-22T10:42:56;6.20;41.00
24636;DHT22;12772;49.794;10.024;2023-11-22T10:46:59;6.20;41.00
24636;DHT22;12772;49.794;10.024;2023-11-22T10:51:03;5.90;40.70
24636;DHT22;12772;49.794;10.024;2023-11-22T10:55:06;6.30;41.10
24636;DHT22;12772;49.794;10.024;2023-11-22T10:59:13;6.50;41.30
24636;DHT22;12772;49.794;10.024;2023-11-22T11:03:18;6.10;40.90
24636;DHT22;12772;49.794;10.024;2023-11-22T11:07:23;6.40;41.20
24636;DHT22;12772;49.794;10.024;2023-11-22T11:11:28;6.50;41.30
24636;DHT22;12772;49.794;10.024;2023-11-22T11:15:32;6.60;41.40
24636;DHT22;12772;49.794;10.024;2023-11-22T11:19:34;6.50;41.30
24636;DHT22;12772;49.794;10.024;2023-11-22T11:23:38;6.10;40.90
24636;DHT22;12772;49.794;10.024;2023-11-22T11:27:41;6.30;41.10
24636;DHT22;12772;49.794;10.024;2023-11-22T11:31:45;6.40;41.20
24636;DHT22;12772;49.794;10.024;2023-11-22T11:35:50;6.40;41.20
24636;DHT22;12772;49.794;10.024;2023-11-22T11:39:53;6.40;41.30
24636;DHT22;12772;49.794;10.024;2023-11-22T11:43:58;6.40;41.70
24636;DHT22;12772;49.794;10.024;2023-11-22T11:48:03;6.30;41.10
24636;DHT22;12772;49.794;10.024;2023-11-22T11:52:05;6.70;41.50
24636;DHT22;12772;49.794;10.024;2023-11-22T11:56:09;6.30;41.10
24636;DHT22;12772;49.794;10.024;2023-11-22T12:00:13;6.60;41.40
24636;DHT22;12772;49.794;10.024;2023-11-22T12:04:16;6.40;41.20
24636;DHT22;12772;49.794;10.024;2023-11-22T12:08:18;6.30;41.10
24636;DHT22;12772;49.794;10.024;2023-11-22T12:12:20;6.70;41.50
24636;DHT22;12772;49.794;10.024;2023-11-22T12:16:22;6.60;41.40
24636;DHT22;12772;49.794;10.024;2023-11-22T12:20:24;6.00;40.80
24636;DHT22;12772;49.794;10.024;2023-11-22T12:24:31;6.40;41.20
24636;DHT22;12772;49.794;10.024;2023-11-22T12:28:33;5.90;40.70
24636;DHT22;12772;49.794;10.024;2023-11-22T12:32:38;6.60;41.40
24636;DHT22;12772;49.794;10.024;2023-11-22T12:36:41;6.30;41.20
24636;DHT22;12772;49.794;10.024;2023-11-22T12:40:45;6.40;41.20
24636;DHT22;12772;49.794;10.024;2023-11-22T12:44:51;6.20;41.00
24636;DHT22;12772;49.794;10.024;2023-11-22T12:49:05;6.70;41.20
24636;DHT22;12772;49.794;10.024;2023-11-22T12:53:14;6.10;40.00
24636;DHT22;12772;49.794;10.024;2023-11-22T12:57:17;6.40;40.60
24636;DHT22;12772;49.794;10.024;2023-11-22T13:01:19;6.20;41.00
24636;DHT22;12772;49.794;10.024;2023-11-22T13:05:21;6.20;41.00
24636;DHT22;12772;49.794;10.024;2023-11-22T13:09:23;6.40;41.20
24636;DHT22;12772;49.794;10.024;2023-11-22T13:13:26;6.50;41.30
24636;DHT22;12772;49.794;10.024;2023-11-22T13:17:28;6.30;41.10
24636;DHT22;12772;49.794;10.024;2023-11-22T13:21:30;6.60;41.50
24636;DHT22;12772;49.794;10.024;2023-11-22T13:25:33;6.70;41.50
24636;DHT22;12772;49.794;10.024;2023-11-22T13:29:35;6.30;40.90
24636;DHT22;12772;49.794;10.024;2023-11-22T13:33:38;6.10;40.80
24636;DHT22;12772;49.794;10.024;2023-11-22T13:37:45;6.80;41.60
24636;DHT22;12772;49.794;10.024;2023-11-22T13:41:48;6.60;41.40
24636;DHT22;12772;49.794;10.024;2023-11-22T13:45:50;6.20;41.00
24636;DHT22;12772;49.794;10.024;2023-11-22T13:49:52;6.60;42.10
24636;DHT22;12772;49.794;10.024;2023-11-22T13:53:54;6.30;41.10
24636;DHT22;12772;49.794;10.024;2023-11-22T13:57:58;6.70;41.60
24636;DHT22;12772;49.794;10.024;2023-11-22T14:02:00;6.70;41.50
24636;DHT22;12772;49.794;10.024;2023-11-22T14:06:02;6.30;41.10
24636;DHT22;12772;49.794;10.024;2023-11-22T14:10:06;6.70;41.60
24636;DHT22;12772;49.794;10.024;2023-11-22T14:14:08;7.00;41.90
24636;DHT22;12772;49.794;10.024;2023-11-22T14:18:10;6.90;41.70
24636;DHT22;12772;49.794;10.024;2023-11-22T14:22:12;6.70;41.60
24636;DHT22;12772;49.794;10.024;2023-11-22T14:26:15;6.60;41.40
24636;DHT22;12772;49.794;10.024;2023-11-22T14:30:17;6.80;41.60
24636;DHT22;12772;49.794;10.024;2023-11-22T14:34:21;7.00;41.80
24636;DHT22;12772;49.794;10.024;2023-11-22T14:38:23;6.40;41.30
24636;DHT22;12772;49.794;10.024;2023-11-22T14:42:26;6.40;41.20
24636;DHT22;12772;49.794;10.024;2023-11-22T14:46:28;6.60;41.50
24636;DHT22;12772;49.794;10.024;2023-11-22T14:50:31;6.30;41.10
24636;DHT22;12772;49.794;10.024;2023-11-22T14:54:33;6.80;41.60
24636;DHT22;12772;49.794;10.024;2023-11-22T14:58:35;6.80;41.60
24636;DHT22;12772;49.794;10.024;2023-11-22T15:02:37;6.60;41.40
24636;DHT22;12772;49.794;10.024;2023-11-22T15:06:39;6.60;41.40
24636;DHT22;12772;49.794;10.024;2023-11-22T15:10:41;6.40;41.20
24636;DHT22;12772;49.794;10.024;2023-11-22T15:14:43;6.30;41.10
24636;DHT22;12772;49.794;10.024;2023-11-22T15:18:46;6.30;41.10
24636;DHT22;12772;49.794;10.024;2023-11-22T15:22:48;6.20;41.00
24636;DHT22;12772;49.794;10.024;2023-11-22T15:26:50;6.60;41.40
24636;DHT22;12772;49.794;10.024;2023-11-22T15:30:52;6.30;41.10
24636;DHT22;12772;49.794;10.024;2023-11-22T15:35:00;6.60;41.40
24636;DHT22;12772;49.794;10.024;2023-11-22T15:39:02;6.40;41.20
24636;DHT22;12772;49.794;10.024;2023-11-22T15:43:04;6.70;41.50
24636;DHT22;12772;49.794;10.024;2023-11-22T15:47:07;6.70;41.50
24636;DHT22;12772;49.794;10.024;2023-11-22T15:51:10;6.40;41.20
24636;DHT22;12772;49.794;10.024;2023-11-22T15:55:13;6.70;41.50
24636;DHT22;12772;49.794;10.024;2023-11-22T15:59:16;6.40;41.20
24636;DHT22;12772;49.794;10.024;2023-11-22T16:03:18;6.70;41.50
24636;DHT22;12772;49.794;10.024;2023-11-22T16:07:20;6.20;41.00
24636;DHT22;12772;49.794;10.024;2023-11-22T16:11:25;6.30;41.10
24636;DHT22;12772;49.794;10.024;2023-11-22T16:15:29;6.40;41.20
24636;DHT22;12772;49.794;10.024;2023-11-22T16:19:32;6.60;41.50
24636;DHT22;12772;49.794;10.024;2023-11-22T16:23:35;6.60;41.40
24636;DHT22;12772;49.794;10.024;2023-11-22T16:27:38;6.60;41.40
24636;DHT22;12772;49.794;10.024;2023-11-22T16:31:42;6.60;41.40
24636;DHT22;12772;49.794;10.024;2023-11-22T16:35:45;6.30;41.10
24636;DHT22;12772;49.794;10.024;2023-11-22T16:39:48;6.50;41.30
24636;DHT22;12772;49.794;10.024;2023-11-22T16:43:54;6.40;41.20
24636;DHT22;12772;49.794;10.024;2023-11-22T16:48:00;6.70;41.50
24636;DHT22;12772;49.794;10.024;2023-11-22T16:52:03;6.60;41.40
24636;DHT22;12772;49.794;10.024;2023-11-22T16:56:07;6.50;41.30
24636;DHT22;12772;49.794;10.024;2023-11-22T17:00:10;6.40;41.20
24636;DHT22;12772;49.794;10.024;2023-11-22T17:04:18;6.50;41.50
24636;DHT22;12772;49.794;10.024;2023-11-22T17:08:20;6.60;41.60
24636;DHT22;12772;49.794;10.024;2023-11-22T17:12:22;6.70;41.50
24636;DHT22;12772;49.794;10.024;2023-11-22T17:16:24;6.50;41.30
24636;DHT22;12772;49.794;10.024;2023-11-22T17:20:26;6.10;40.90
24636;DHT22;12772;49.794;10.024;2023-11-22T17:24:28;6.40;41.20
24636;DHT22;12772;49.794;10.024;2023-11-22T17:28:30;6.30;41.10
24636;DHT22;12772;49.794;10.024;2023-11-22T17:32:33;6.10;40.90
24636;DHT22;12772;49.794;10.024;2023-11-22T17:36:35;6.20;41.00
24636;DHT22;12772;49.794;10.024;2023-11-22T17:40:37;6.20;41.00
24636;DHT22;12772;49.794;10.024;2023-11-22T17:44:39;6.20;41.00
24636;DHT22;12772;49.794;10.024;2023-11-22T17:48:41;6.10;40.90
24636;DHT22;12772;49.794;10.024;2023-11-22T17:52:43;5.70;40.50
24636;DHT22;12772;49.794;10.024;2023-11-22T17:56:45;6.20;41.00
24636;DHT22;12772;49.794;10.024;2023-11-22T18:00:48;6.00;40.80
24636;DHT22;12772;49.794;10.024;2023-11-22T18:04:50;6.20;41.00
24636;DHT22;12772;49.794;10.024;2023-11-22T18:08:53;5.80;40.60
24636;DHT22;12772;49.794;10.024;2023-11-22T18:12:58;6.20;41.00
24636;DHT22;12772;49.794;10.024;2023-11-22T18:16:59;6.10;40.90
24636;DHT22;12772;49.794;10.024;2023-11-22T18:21:02;5.60;40.40
24636;DHT22;12772;49.794;10.024;2023-11-22T18:25:05;5.50;40.30
24636;DHT22;12772;49.794;10.024;2023-11-22T18:29:08;5.90;40.70
24636;DHT22;12772;49.794;10.024;2023-11-22T18:33:10;6.00;41.20
24636;DHT22;12772;49.794;10.024;2023-11-22T18:37:12;5.50;40.80
24636;DHT22;12772;49.794;10.024;2023-11-22T18:41:14;6.10;41.60
24636;DHT22;12772;49.794;10.024;2023-11-22T18:45:17;5.50;41.10
24636;DHT22;12772;49.794;10.024;2023-11-22T18:49:19;6.00;41.10
24636;DHT22;12772;49.794;10.024;2023-11-22T18:53:24;5.50;41.00
24636;DHT22;12772;49.794;10.024;2023-11-22T18:57:27;5.70;40.50
24636;DHT22;12772;49.794;10.024;2023-11-22T19:01:29;5.40;41.00
24636;DHT22;12772;49.794;10.024;2023-11-22T19:05:31;5.70;41.60
24636;DHT22;12772;49.794;10.024;2023-11-22T19:09:33;5.80;41.90
24636;DHT22;12772;49.794;10.024;2023-11-22T19:13:35;5.40;41.10
24636;DHT22;12772;49.794;10.024;2023-11-22T19:17:37;5.70;42.00
24636;DHT22;12772;49.794;10.024;2023-11-22T19:21:39;5.50;41.90
24636;DHT22;12772;49.794;10.024;2023-11-22T19:25:41;5.70;42.10
24636;DHT22;12772;49.794;10.024;2023-11-22T19:29:43;5.40;41.70
24636;DHT22;12772;49.794;10.024;2023-11-22T19:33:46;5.80;42.20
24636;DHT22;12772;49.794;10.024;2023-11-22T19:37:48;5.70;42.50
24636;DHT22;12772;49.794;10.024;2023-11-22T19:41:50;5.50;42.10
24636;DHT22;12772;49.794;10.024;2023-11-22T19:45:53;5.60;42.30
24636;DHT22;12772;49.794;10.024;2023-11-22T19:49:55;5.50;42.30
24636;DHT22;12772;49.794;10.024;2023-11-22T19:53:57;5.50;42.30
24636;DHT22;12772;49.794;10.024;2023-11-22T19:57:59;4.90;41.80
24636;DHT22;12772;49.794;10.024;2023-11-22T20:02:02;5.30;42.70
24636;DHT22;12772;49.794;10.024;2023-11-22T20:06:04;5.60;43.20
24636;DHT22;12772;49.794;10.024;2023-11-22T20:10:06;5.40;42.90
24636;DHT22;12772;49.794;10.024;2023-11-22T20:14:08;5.40;43.40
24636;DHT22;12772;49.794;10.024;2023-11-22T20:18:11;5.50;43.30
24636;DHT22;12772;49.794;10.024;2023-11-22T20:22:13;5.70;43.30
24636;DHT22;12772;49.794;10.024;2023-11-22T20:26:15;5.40;43.30
24636;DHT22;12772;49.794;10.024;2023-11-22T20:30:17;5.50;43.50
24636;DHT22;12772;49.794;10.024;2023-11-22T20:34:19;5.70;43.60
24636;DHT22;12772;49.794;10.024;2023-11-22T20:38:21;5.60;43.30
24636;DHT22;12772;49.794;10.024;2023-11-22T20:42:23;5.20;42.90
24636;DHT22;12772;49.794;10.024;2023-11-22T20:46:25;5.50;43.30
24636;DHT22;12772;49.794;10.024;2023-11-22T20:50:27;5.00;42.90
24636;DHT22;12772;49.794;10.024;2023-11-22T20:54:29;5.40;43.40
24636;DHT22;12772;49.794;10.024;2023-11-22T20:58:32;5.40;43.70
24636;DHT22;12772;49.794;10.024;2023-11-22T21:02:34;4.90;43.40
24636;DHT22;12772;49.794;10.024;2023-11-22T21:06:36;4.90;43.70
24636;DHT22;12772;49.794;10.024;2023-11-22T21:10:38;5.40;44.40
24636;DHT22;12772;49.794;10.024;2023-11-22T21:14:40;5.20;44.20
24636;DHT22;12772;49.794;10.024;2023-11-22T21:18:42;5.00;44.20
24636;DHT22;12772;49.794;10.024;2023-11-22T21:22:44;4.80;44.50
24636;DHT22;12772;49.794;10.024;2023-11-22T21:26:47;4.70;44.70
24636;DHT22;12772;49.794;10.024;2023-11-22T21:30:49;5.20;45.30
24636;DHT22;12772;49.794;10.024;2023-11-22T21:34:51;5.20;45.20
24636;DHT22;12772;49.794;10.024;2023-11-22T21:38:56;4.90;45.00
24636;DHT22;12772;49.794;10.024;2023-11-22T21:42:58;5.10;45.30
24636;DHT22;12772;49.794;10.024;2023-11-22T21:47:00;4.90;45.10
24636;DHT22;12772;49.794;10.024;2023-11-22T21:51:02;5.10;45.20
24636;DHT22;12772;49.794;10.024;2023-11-22T21:55:06;5.00;45.60
24636;DHT22;12772;49.794;10.024;2023-11-22T21:59:10;5.00;45.70
24636;DHT22;12772;49.794;10.024;2023-11-22T22:03:12;5.00;45.90
24636;DHT22;12772;49.794;10.024;2023-11-22T22:07:14;5.00;45.80
24636;DHT22;12772;49.794;10.024;2023-11-22T22:11:16;4.90;46.00
24636;DHT22;12772;49.794;10.024;2023-11-22T22:15:18;4.90;46.30
24636;DHT22;12772;49.794;10.024;2023-11-22T22:19:21;4.80;46.00
24636;DHT22;12772;49.794;10.024;2023-11-22T22:23:23;5.00;46.40
24636;DHT22;12772;49.794;10.024;2023-11-22T22:27:25;4.70;46.10
24636;DHT22;12772;49.794;10.024;2023-11-22T22:31:28;4.70;45.60
24636;DHT22;12772;49.794;10.024;2023-11-22T22:35:30;4.70;45.70
24636;DHT22;12772;49.794;10.024;2023-11-22T22:39:33;5.00;46.10
24636;DHT22;12772;49.794;10.024;2023-11-22T22:43:35;4.60;45.90
24636;DHT22;12772;49.794;10.024;2023-11-22T22:47:36;4.80;46.90
24636;DHT22;12772;49.794;10.024;2023-11-22T22:51:40;4.90;46.20
24636;DHT22;12772;49.794;10.024;2023-11-22T22:55:43;5.10;46.30
24636;DHT22;12772;49.794;10.024;2023-11-22T22:59:45;4.50;45.90
24636;DHT22;12772;49.794;10.024;2023-11-22T23:03:47;5.10;46.60
24636;DHT22;12772;49.794;10.024;2023-11-22T23:07:49;4.60;46.10
24636;DHT22;12772;49.794;10.024;2023-11-22T23:11:51;4.80;46.20
24636;DHT22;12772;49.794;10.024;2023-11-22T23:15:53;5.00;46.40
24636;DHT22;12772;49.794;10.024;2023-11-22T23:19:55;5.10;46.50
24636;DHT22;12772;49.794;10.024;2023-11-22T23:23:57;4.60;46.30
24636;DHT22;12772;49.794;10.024;2023-11-22T23:28:00;4.60;46.00
24636;DHT22;12772;49.794;10.024;2023-11-22T23:32:02;4.40;46.20
24636;DHT22;12772;49.794;10.024;2023-11-22T23:36:04;5.00;47.10
24636;DHT22;12772;49.794;10.024;2023-11-22T23:40:09;4.80;47.00
24636;DHT22;12772;49.794;10.024;2023-11-22T23:44:14;4.80;46.60
24636;DHT22;12772;49.794;10.024;2023-11-22T23:48:16;4.50;46.30
24636;DHT22;12772;49.794;10.024;2023-11-22T23:52:18;4.50;46.60
24636;DHT22;12772;49.794;10.024;2023-11-22T23:56:20;4.40;46.70
